createdAt,value
2022-12-23T00:01:00.076Z,94691.56
2022-12-23T00:03:29.234Z,94672.84
2022-12-23T00:05:57.314Z,94667.50
2022-12-23T00:08:25.720Z,94678.44
2022-12-23T00:10:57.576Z,94666.16
2022-12-23T00:13:42.654Z,94655.78
2022-12-23T00:16:12.202Z,94647.31
2022-12-23T00:18:40.866Z,94643.91
2022-12-23T00:21:11.272Z,94648.16
2022-12-23T00:23:40.724Z,94640.22
2022-12-23T00:26:15.454Z,94638.88
2022-12-23T00:28:43.118Z,94627.13
2022-12-23T00:31:13.684Z,94643.78
2022-12-23T00:33:43.221Z,94643.66
2022-12-23T00:36:19.327Z,94631.78
2022-12-23T00:39:04.813Z,94619.47
2022-12-23T00:41:52.163Z,94625.22
2022-12-23T00:44:19.947Z,94600.25
2022-12-23T00:46:47.588Z,94581.78
2022-12-23T00:49:34.239Z,94573.34
2022-12-23T00:52:02.663Z,94583.97
2022-12-23T00:54:31.915Z,94578.66
2022-12-23T00:57:01.248Z,94567.75
2022-12-23T00:59:28.943Z,94560.25
2022-12-23T01:02:14.517Z,94585.34
2022-12-23T01:04:59.634Z,94575.78
2022-12-23T01:07:27.363Z,94561.88
2022-12-23T01:09:55.078Z,94562.56
2022-12-23T01:12:24.214Z,94554.38
2022-12-23T01:14:51.867Z,94562.03
2022-12-23T01:17:19.739Z,94571.56
2022-12-23T01:19:47.549Z,94566.66
2022-12-23T01:22:15.181Z,94553.19
2022-12-23T01:24:42.926Z,94546.25
2022-12-23T01:27:10.559Z,94556.47
2022-12-23T01:29:39.575Z,94559.34
2022-12-23T01:32:07.296Z,94559.72
2022-12-23T01:34:37.519Z,94558.19
2022-12-23T01:37:05.797Z,94553.28
2022-12-23T01:39:33.538Z,94559.28
2022-12-23T01:42:18.643Z,94554.66
2022-12-23T01:44:59.956Z,94560.78
2022-12-23T01:47:33.183Z,94550.69
2022-12-23T01:50:06.197Z,94555.31
2022-12-23T01:52:37.009Z,94544.41
2022-12-23T01:55:05.031Z,94550.69
2022-12-23T01:57:32.988Z,94558.19
2022-12-23T02:00:31.193Z,94560.50
2022-12-23T02:03:16.524Z,94575.22
2022-12-23T02:05:45.955Z,94569.09
2022-12-23T02:08:33.147Z,94557.78
2022-12-23T02:11:26.419Z,94558.34
2022-12-23T02:14:22.600Z,94558.88
2022-12-23T02:17:00.375Z,94552.34
2022-12-23T02:19:53.817Z,94556.97
2022-12-23T02:22:43.651Z,94565.16
2022-12-23T02:25:43.923Z,94565.56
2022-12-23T02:28:41.438Z,94562.44
2022-12-23T02:31:21.202Z,94560.53
2022-12-23T02:33:58.095Z,94557.78
2022-12-23T02:36:38.816Z,94563.66
2022-12-23T02:39:10.883Z,94560.66
2022-12-23T02:41:48.213Z,94566.16
2022-12-23T02:44:28.219Z,94564.91
2022-12-23T02:47:05.014Z,94563.28
2022-12-23T02:49:36.508Z,94566.28
2022-12-23T02:52:08.450Z,94575.00
2022-12-23T02:54:41.946Z,94568.34
2022-12-23T02:57:12.586Z,94566.72
2022-12-23T02:59:44.911Z,94569.00
2022-12-23T03:02:14.545Z,94575.28
2022-12-23T03:04:42.657Z,94572.03
2022-12-23T03:07:18.600Z,94576.75
2022-12-23T03:09:58.330Z,94557.41
2022-12-23T03:12:37.066Z,94573.09
2022-12-23T03:15:25.820Z,94578.84
2022-12-23T03:18:03.698Z,94576.25
2022-12-23T03:20:38.897Z,94567.38
2022-12-23T03:23:14.253Z,94574.19
2022-12-23T03:25:47.585Z,94572.56
2022-12-23T03:28:21.167Z,94573.75
2022-12-23T03:30:53.784Z,94562.44
2022-12-23T03:33:27.038Z,94576.75
2022-12-23T03:35:59.239Z,94573.75
2022-12-23T03:38:28.564Z,94557.22
2022-12-23T03:40:59.777Z,94566.50
2022-12-23T03:43:31.792Z,94578.22
2022-12-23T03:46:02.103Z,94581.22
2022-12-23T03:48:35.569Z,94585.34
2022-12-23T03:51:06.773Z,94589.94
2022-12-23T03:53:39.243Z,94585.59
2022-12-23T03:56:11.545Z,94585.44
2022-12-23T03:58:43.421Z,94589.94
2022-12-23T04:01:26.695Z,94594.88
2022-12-23T04:04:01.461Z,94581.22
2022-12-23T04:06:35.379Z,94596.50
2022-12-23T04:09:04.100Z,94589.53
2022-12-23T04:11:32.051Z,94598.16
2022-12-23T04:13:59.743Z,94587.47
2022-12-23T04:16:28.393Z,94588.03
2022-12-23T04:18:57.407Z,94600.03
2022-12-23T04:21:25.042Z,94593.34
2022-12-23T04:23:52.751Z,94606.44
2022-12-23T04:26:20.445Z,94612.06
2022-12-23T04:28:48.133Z,94608.38
2022-12-23T04:31:15.788Z,94618.59
2022-12-23T04:33:43.523Z,94617.50
2022-12-23T04:36:12.531Z,94609.59
2022-12-23T04:38:40.160Z,94618.34
2022-12-23T04:41:07.858Z,94620.78
2022-12-23T04:43:35.889Z,94625.03
2022-12-23T04:46:03.577Z,94631.31
2022-12-23T04:48:31.239Z,94619.69
2022-12-23T04:50:58.909Z,94625.56
2022-12-23T04:53:27.921Z,94638.53
2022-12-23T04:55:55.556Z,94623.22
2022-12-23T04:58:25.065Z,94635.09
2022-12-23T05:01:02.632Z,94638.66
2022-12-23T05:03:30.365Z,94628.81
2022-12-23T05:05:58.298Z,94625.53
2022-12-23T05:08:26.055Z,94628.13
2022-12-23T05:10:55.253Z,94629.22
2022-12-23T05:13:23.225Z,94623.72
2022-12-23T05:15:52.699Z,94628.63
2022-12-23T05:18:21.580Z,94626.03
2022-12-23T05:20:50.214Z,94646.66
2022-12-23T05:23:18.068Z,94639.44
2022-12-23T05:25:52.161Z,94635.91
2022-12-23T05:28:21.675Z,94633.44
2022-12-23T05:30:49.821Z,94639.19
2022-12-23T05:33:17.556Z,94638.19
2022-12-23T05:35:45.348Z,94641.78
2022-12-23T05:38:12.985Z,94646.97
2022-12-23T05:40:40.618Z,94650.22
2022-12-23T05:43:08.507Z,94650.63
2022-12-23T05:45:37.665Z,94654.03
2022-12-23T05:48:05.376Z,94640.78
2022-12-23T05:50:33.224Z,94643.38
2022-12-23T05:53:00.867Z,94657.59
2022-12-23T05:55:28.639Z,94652.81
2022-12-23T05:57:56.314Z,94649.25
2022-12-23T06:00:24.252Z,94651.69
2022-12-23T06:02:54.266Z,94655.41
2022-12-23T06:05:22.709Z,94651.69
2022-12-23T06:07:50.370Z,94657.56
2022-12-23T06:10:18.152Z,94655.09
2022-12-23T06:12:45.828Z,94656.44
2022-12-23T06:15:13.690Z,94644.16
2022-12-23T06:17:41.351Z,94662.19
2022-12-23T06:20:18.100Z,94682.41
2022-12-23T06:22:48.299Z,94682.13
2022-12-23T06:25:16.199Z,94681.47
2022-12-23T06:27:43.831Z,94678.41
2022-12-23T06:30:12.163Z,94687.56
2022-12-23T06:32:39.872Z,94687.84
2022-12-23T06:35:08.070Z,94683.75
2022-12-23T06:37:37.171Z,94694.97
2022-12-23T06:40:05.723Z,94698.09
2022-12-23T06:42:34.005Z,94715.63
2022-12-23T06:45:01.835Z,94712.34
2022-12-23T06:47:29.567Z,94720.22
2022-12-23T06:49:57.258Z,94723.66
2022-12-23T06:52:24.865Z,94722.69
2022-12-23T06:54:53.983Z,94725.81
2022-12-23T06:57:21.783Z,94728.78
2022-12-23T06:59:49.711Z,94730.44
2022-12-23T07:02:17.498Z,94749.22
2022-12-23T07:04:45.188Z,94743.78
2022-12-23T07:07:13.224Z,94751.00
2022-12-23T07:09:40.830Z,94763.03
2022-12-23T07:12:09.922Z,94752.75
2022-12-23T07:14:37.571Z,94755.25
2022-12-23T07:17:05.228Z,94762.63
2022-12-23T07:19:32.825Z,94767.00
2022-12-23T07:22:00.475Z,94768.50
2022-12-23T07:24:28.087Z,94762.06
2022-12-23T07:26:56.004Z,94760.13
2022-12-23T07:29:25.019Z,94767.66
2022-12-23T07:31:53.065Z,94773.56
2022-12-23T07:34:20.859Z,94770.94
2022-12-23T07:36:48.591Z,94771.34
2022-12-23T07:39:16.259Z,94775.72
2022-12-23T07:41:43.985Z,94774.06
2022-12-23T07:44:11.633Z,94783.78
2022-12-23T07:46:40.917Z,94777.63
2022-12-23T07:49:09.510Z,94787.88
2022-12-23T07:51:37.088Z,94788.72
2022-12-23T07:54:05.143Z,94790.91
2022-12-23T07:56:32.754Z,94781.84
2022-12-23T07:59:00.352Z,94784.59
2022-12-23T08:01:28.094Z,94787.88
2022-12-23T08:03:57.259Z,94779.56
2022-12-23T08:06:24.948Z,94778.72
2022-12-23T08:08:52.555Z,94785.28
2022-12-23T08:11:20.251Z,94785.00
2022-12-23T08:13:49.200Z,94783.22
2022-12-23T08:16:16.892Z,94796.06
2022-12-23T08:18:44.523Z,94804.56
2022-12-23T08:21:15.752Z,94790.47
2022-12-23T08:23:43.977Z,94791.16
2022-12-23T08:26:13.337Z,94792.56
2022-12-23T08:28:42.471Z,94792.97
2022-12-23T08:31:11.909Z,94795.56
2022-12-23T08:33:41.109Z,94787.91
2022-12-23T08:36:11.559Z,94789.41
2022-12-23T08:38:40.631Z,94795.56
2022-12-23T08:41:10.660Z,94785.03
2022-12-23T08:43:38.409Z,94785.84
2022-12-23T08:46:07.347Z,94791.19
2022-12-23T08:48:36.249Z,94788.84
2022-12-23T08:51:05.703Z,94782.28
2022-12-23T08:53:34.002Z,94770.41
2022-12-23T08:56:05.784Z,94788.44
2022-12-23T08:58:36.749Z,94802.78
2022-12-23T09:01:05.481Z,94796.75
2022-12-23T09:03:33.589Z,94818.75
2022-12-23T09:06:05.828Z,94833.94
2022-12-23T09:08:33.692Z,94834.91
2022-12-23T09:11:01.658Z,94838.19
2022-12-23T09:13:35.577Z,94829.16
2022-12-23T09:16:03.971Z,94846.25
2022-12-23T09:18:32.094Z,94839.28
2022-12-23T09:21:00.768Z,94844.88
2022-12-23T09:23:29.081Z,94833.81
2022-12-23T09:25:57.169Z,94837.06
2022-12-23T09:28:25.948Z,94827.06
2022-12-23T09:30:54.977Z,94816.22
2022-12-23T09:33:22.695Z,94820.47
2022-12-23T09:35:50.485Z,94816.38
2022-12-23T09:38:18.062Z,94799.94
2022-12-23T09:40:45.793Z,94820.47
2022-12-23T09:43:25.657Z,94819.38
2022-12-23T09:46:05.297Z,94818.13
2022-12-23T09:48:36.523Z,94813.88
2022-12-23T09:51:05.835Z,94815.91
2022-12-23T09:53:45.411Z,94814.28
2022-12-23T09:56:19.450Z,94797.47
2022-12-23T09:58:55.441Z,94800.63
2022-12-23T10:01:32.682Z,94794.03
2022-12-23T10:04:31.254Z,94801.13
2022-12-23T10:07:16.940Z,94801.94
2022-12-23T10:09:47.420Z,94802.50
2022-12-23T10:12:27.280Z,94802.84
2022-12-23T10:14:59.675Z,94794.91
2022-12-23T10:17:33.432Z,94795.72
2022-12-23T10:20:04.720Z,94795.59
2022-12-23T10:22:38.528Z,94801.47
2022-12-23T10:25:17.206Z,94799.97
2022-12-23T10:27:45.819Z,94781.75
2022-12-23T10:30:42.520Z,94785.28
2022-12-23T10:33:09.569Z,94788.53
2022-12-23T10:35:45.546Z,94789.28
2022-12-23T10:38:25.815Z,94792.41
2022-12-23T10:41:03.878Z,94785.84
2022-12-23T10:43:49.531Z,94791.03
2022-12-23T10:46:26.254Z,94778.00
2022-12-23T10:49:04.598Z,94779.34
2022-12-23T10:51:39.570Z,94787.16
2022-12-23T10:54:14.012Z,94788.41
2022-12-23T10:56:41.802Z,94784.31
2022-12-23T10:59:15.007Z,94783.53
2022-12-23T11:01:48.170Z,94782.72
2022-12-23T11:04:21.219Z,94782.72
2022-12-23T11:07:18.282Z,94775.72
2022-12-23T11:09:43.052Z,94771.94
2022-12-23T11:12:12.587Z,94781.09
2022-12-23T11:14:42.585Z,94784.09
2022-12-23T11:17:21.053Z,94778.44
2022-12-23T11:19:57.087Z,94776.63
2022-12-23T11:22:26.568Z,94774.34
2022-12-23T11:24:54.212Z,94773.75
2022-12-23T11:27:21.850Z,94769.91
2022-12-23T11:29:52.511Z,94759.34
2022-12-23T11:32:23.361Z,94762.31
2022-12-23T11:34:53.473Z,94752.69
2022-12-23T11:37:35.817Z,94754.31
2022-12-23T11:40:05.429Z,94743.22
2022-12-23T11:42:35.496Z,94741.00
2022-12-23T11:45:08.462Z,94751.09
2022-12-23T11:47:40.941Z,94743.22
2022-12-23T11:50:28.713Z,94747.75
2022-12-23T11:53:02.298Z,94734.75
2022-12-23T11:55:33.734Z,94731.25
2022-12-23T11:58:02.847Z,94733.31
2022-12-23T12:00:36.477Z,94729.47
2022-12-23T12:03:05.804Z,94734.69
2022-12-23T12:05:37.376Z,94730.00
2022-12-23T12:08:07.718Z,94724.94
2022-12-23T12:10:37.669Z,94734.25
2022-12-23T12:13:07.892Z,94739.44
2022-12-23T12:15:45.683Z,94721.34
2022-12-23T12:18:16.940Z,94726.72
2022-12-23T12:20:48.158Z,94719.72
2022-12-23T12:23:19.549Z,94713.25
2022-12-23T12:25:51.623Z,94705.97
2022-12-23T12:28:24.456Z,94689.53
2022-12-23T12:30:57.827Z,94686.72
2022-12-23T12:33:33.468Z,94691.31
2022-12-23T12:36:12.542Z,94689.38
2022-12-23T12:38:41.149Z,94685.13
2022-12-23T12:41:17.305Z,94687.88
2022-12-23T12:43:51.973Z,94680.25
2022-12-23T12:46:28.341Z,94699.34
2022-12-23T12:49:00.281Z,94680.59
2022-12-23T12:51:32.911Z,94677.19
2022-12-23T12:54:07.129Z,94678.09
2022-12-23T12:56:42.009Z,94677.94
2022-12-23T12:59:17.491Z,94682.63
2022-12-23T13:01:53.900Z,94673.34
2022-12-23T13:04:49.830Z,94677.34
2022-12-23T13:07:28.872Z,94672.88
2022-12-23T13:10:02.139Z,94676.53
2022-12-23T13:12:40.897Z,94680.75
2022-12-23T13:15:19.743Z,94668.78
2022-12-23T13:18:01.927Z,94667.00
2022-12-23T13:20:37.558Z,94656.38
2022-12-23T13:23:41.748Z,94658.31
2022-12-23T13:26:05.995Z,94652.13
2022-12-23T13:28:42.289Z,94654.28
2022-12-23T13:31:18.263Z,94647.59
2022-12-23T13:33:54.591Z,94648.72
2022-12-23T13:36:38.516Z,94651.03
2022-12-23T13:39:23.880Z,94648.81
2022-12-23T13:41:58.578Z,94654.56
2022-12-23T13:44:31.467Z,94653.63
2022-12-23T13:47:08.876Z,94652.97
2022-12-23T13:49:52.940Z,94649.91
2022-12-23T13:52:29.881Z,94648.13
2022-12-23T13:55:13.128Z,94649.53
2022-12-23T13:57:49.971Z,94658.16
2022-12-23T14:00:27.837Z,94649.59
2022-12-23T14:03:17.850Z,94647.91
2022-12-23T14:05:46.988Z,94645.19
2022-12-23T14:08:24.871Z,94636.28
2022-12-23T14:10:55.901Z,94634.78
2022-12-23T14:13:26.354Z,94635.84
2022-12-23T14:16:25.642Z,94631.59
2022-12-23T14:19:21.356Z,94630.56
2022-12-23T14:21:59.019Z,94633.53
2022-12-23T14:25:10.468Z,94637.94
2022-12-23T14:27:51.388Z,94633.53
2022-12-23T14:30:24.349Z,94636.44
2022-12-23T14:32:53.659Z,94634.34
2022-12-23T14:35:27.664Z,94638.16
2022-12-23T14:38:29.523Z,94620.03
2022-12-23T14:41:23.856Z,94617.13
2022-12-23T14:43:58.057Z,94611.72
2022-12-23T14:46:57.477Z,94607.47
2022-12-23T14:49:39.717Z,94613.84
2022-12-23T14:52:46.469Z,94605.59
2022-12-23T14:55:46.130Z,94606.41
2022-12-23T14:58:32.244Z,94606.56
2022-12-23T15:01:05.649Z,94606.41
2022-12-23T15:03:41.169Z,94602.31
2022-12-23T15:06:08.845Z,94603.75
2022-12-23T15:08:40.034Z,94603.91
2022-12-23T15:14:39.321Z,94604.56
2022-12-23T15:17:19.527Z,94601.22
2022-12-23T15:19:48.091Z,94606.78
2022-12-23T15:22:22.732Z,94602.94
2022-12-23T15:24:53.248Z,94601.09
2022-12-23T15:27:30.242Z,94604.13
2022-12-23T15:29:58.640Z,94601.41
2022-12-23T15:32:29.474Z,94605.78
2022-12-23T15:35:03.567Z,94603.72
2022-12-23T15:37:32.672Z,94610.72
2022-12-23T15:40:11.537Z,94601.41
2022-12-23T15:42:40.619Z,94602.91
2022-12-23T15:45:34.915Z,94598.91
2022-12-23T15:48:05.490Z,94602.47
2022-12-23T15:50:40.547Z,94603.69
2022-12-23T15:53:11.064Z,94599.94
2022-12-23T15:55:41.709Z,94605.69
2022-12-23T15:58:16.479Z,94594.31
2022-12-23T16:00:52.794Z,94598.00
2022-12-23T16:03:28.087Z,94600.78
2022-12-23T16:05:56.059Z,94596.09
2022-12-23T16:53:31.233Z,94592.22
2022-12-23T16:56:01.273Z,94601.38
2022-12-23T16:58:29.464Z,94582.88
2022-12-23T17:00:57.428Z,94594.91
2022-12-23T17:03:25.058Z,94614.75
2022-12-23T17:05:53.064Z,94589.53
2022-12-23T17:08:20.724Z,94589.53
2022-12-23T17:10:48.385Z,94613.09
2022-12-23T17:13:19.508Z,94587.16
2022-12-23T17:15:47.165Z,94589.19
2022-12-23T17:18:16.806Z,94602.31
2022-12-23T17:20:45.864Z,94595.50
2022-12-23T17:23:26.598Z,94605.09
2022-12-23T17:25:54.485Z,94612.72
2022-12-23T17:28:23.827Z,94616.16
2022-12-23T17:30:55.706Z,94601.66
2022-12-23T17:33:27.807Z,94617.81
2022-12-23T17:35:55.968Z,94615.72
2022-12-23T17:38:23.804Z,94615.03
2022-12-23T17:40:51.677Z,94636.81
2022-12-23T17:43:19.996Z,94620.91
2022-12-23T17:45:49.020Z,94618.31
2022-12-23T17:48:22.164Z,94622.34
2022-12-23T17:50:50.958Z,94633.53
2022-12-23T17:53:20.193Z,94632.03
2022-12-23T17:55:47.970Z,94608.34
2022-12-23T17:58:16.207Z,94610.13
2022-12-23T18:00:43.894Z,94614.75
2022-12-23T18:03:23.154Z,94621.75
2022-12-23T18:05:57.245Z,94618.69
2022-12-23T18:08:28.753Z,94609.25
2022-12-23T18:10:56.616Z,94598.84
2022-12-23T18:13:24.273Z,94608.28
2022-12-23T18:15:52.603Z,94607.47
2022-12-23T18:18:33.051Z,94608.13
2022-12-23T18:21:06.313Z,94617.59
2022-12-23T18:23:37.155Z,94622.91
2022-12-23T18:26:05.439Z,94615.13
2022-12-23T18:28:33.120Z,94608.66
2022-12-23T18:31:00.785Z,94606.88
2022-12-23T18:33:30.292Z,94607.97
2022-12-23T18:35:58.389Z,94596.47
2022-12-23T18:38:26.116Z,94604.94
2022-12-23T18:40:54.857Z,94612.44
2022-12-23T18:43:24.739Z,94598.63
2022-12-23T18:45:54.098Z,94617.22
2022-12-23T18:48:22.077Z,94620.09
2022-12-23T18:50:52.204Z,94591.66
2022-12-23T18:53:25.099Z,94587.78
2022-12-23T18:55:54.174Z,94598.19
2022-12-23T18:58:22.586Z,94580.78
2022-12-23T19:00:52.532Z,94588.59
2022-12-23T19:03:24.835Z,94587.31
2022-12-23T19:05:55.305Z,94587.16
2022-12-23T19:08:26.708Z,94581.84
2022-12-23T19:10:56.009Z,94589.75
2022-12-23T19:13:23.877Z,94605.09
2022-12-23T19:15:51.898Z,94600.72
2022-12-23T19:18:22.193Z,94601.53
2022-12-23T19:20:50.435Z,94606.41
2022-12-23T19:23:19.440Z,94613.41
2022-12-23T19:25:54.379Z,94612.66
2022-12-23T19:28:22.852Z,94598.81
2022-12-23T19:30:50.806Z,94584.31
2022-12-23T19:33:18.507Z,94600.09
2022-12-23T19:35:46.136Z,94586.25
2022-12-23T19:38:13.775Z,94596.38
2022-12-23T19:40:42.783Z,94592.97
2022-12-23T19:43:11.321Z,94596.53
2022-12-23T19:45:39.013Z,94600.59
2022-12-23T19:48:07.021Z,94605.53
2022-12-23T19:50:34.651Z,94596.53
2022-12-23T19:53:02.295Z,94620.63
2022-12-23T19:55:30.290Z,94619.50
2022-12-23T19:57:59.298Z,94622.63
2022-12-23T20:00:26.922Z,94630.28
2022-12-23T20:02:58.660Z,94632.03
2022-12-23T20:05:26.901Z,94627.53
2022-12-23T20:07:54.497Z,94627.38
2022-12-23T20:10:22.093Z,94622.16
2022-12-23T20:12:50.098Z,94629.81
2022-12-23T20:15:19.217Z,94638.44
2022-12-23T20:17:46.874Z,94622.84
2022-12-23T20:20:14.697Z,94641.34
2022-12-23T20:22:42.304Z,94636.28
2022-12-23T20:25:10.298Z,94647.53
2022-12-23T20:27:38.710Z,94633.91
2022-12-23T20:30:07.626Z,94641.44
2022-12-23T20:32:36.559Z,94629.53
2022-12-23T20:35:04.468Z,94642.09
2022-12-23T20:37:32.080Z,94654.44
2022-12-23T20:39:59.736Z,94657.03
2022-12-23T20:42:28.012Z,94655.78
2022-12-23T20:44:55.690Z,94659.19
2022-12-23T20:47:23.384Z,94645.53
2022-12-23T20:49:52.454Z,94660.81
2022-12-23T20:52:20.064Z,94664.03
2022-12-23T20:54:47.709Z,94674.88
2022-12-23T20:57:15.375Z,94673.69
2022-12-23T20:59:43.005Z,94676.59
2022-12-23T21:02:13.021Z,94676.81
2022-12-23T21:04:40.818Z,94677.53
2022-12-23T21:07:10.052Z,94666.78
2022-12-23T21:09:37.878Z,94673.63
2022-12-23T21:12:05.836Z,94673.47
2022-12-23T21:14:33.728Z,94674.16
2022-12-23T21:17:01.305Z,94671.84
2022-12-23T21:19:29.087Z,94692.13
2022-12-23T21:21:58.389Z,94723.25
2022-12-23T21:24:27.693Z,94738.31
2022-12-23T21:26:56.833Z,94735.41
2022-12-23T21:29:25.467Z,94749.94
2022-12-23T21:31:53.198Z,94761.22
2022-12-23T21:34:20.979Z,94766.16
2022-12-23T21:36:48.992Z,94759.63
2022-12-23T21:39:17.659Z,94766.88
2022-12-23T21:41:49.105Z,94784.28
2022-12-23T21:44:16.777Z,94758.72
2022-12-23T21:46:44.473Z,94738.31
2022-12-23T21:49:12.354Z,94772.75
2022-12-23T21:51:41.528Z,94778.50
2022-12-23T21:54:10.851Z,94755.41
2022-12-23T21:56:39.685Z,94790.03
2022-12-23T21:59:11.339Z,94788.78
2022-12-23T22:01:39.061Z,94799.44
2022-12-23T22:04:07.401Z,94777.41
2022-12-23T22:06:37.675Z,94792.31
2022-12-23T22:09:06.842Z,94782.31
2022-12-23T22:11:36.368Z,94793.00
2022-12-23T22:14:05.516Z,94793.25
2022-12-23T22:16:35.449Z,94790.81
2022-12-23T22:19:04.791Z,94784.09
2022-12-23T22:21:33.682Z,94781.22
2022-12-23T22:24:01.616Z,94779.81
2022-12-23T22:26:31.079Z,94791.72
2022-12-23T22:29:00.935Z,94794.56
2022-12-23T22:31:32.769Z,94792.50
2022-12-23T22:34:02.221Z,94797.84
2022-12-23T22:36:29.939Z,94806.97
2022-12-23T22:38:59.396Z,94800.69
2022-12-23T22:41:29.282Z,94805.50
2022-12-23T22:43:57.643Z,94800.19
2022-12-23T22:46:26.116Z,94811.38
2022-12-23T22:48:54.601Z,94814.69
2022-12-23T22:51:26.123Z,94801.94
2022-12-23T22:53:54.393Z,94831.19
2022-12-23T22:56:23.531Z,94828.03
2022-12-23T22:58:51.994Z,94835.13
2022-12-23T23:01:22.913Z,94819.81
2022-12-23T23:04:01.235Z,94834.19
2022-12-23T23:06:32.135Z,94838.28
2022-12-23T23:09:00.062Z,94829.03
2022-12-23T23:11:29.188Z,94812.38
2022-12-23T23:13:57.788Z,94819.78
2022-12-23T23:16:26.401Z,94804.88
2022-12-23T23:18:54.985Z,94803.72
2022-12-23T23:21:22.780Z,94801.53
2022-12-23T23:23:51.789Z,94810.00
2022-12-23T23:26:20.154Z,94811.78
2022-12-23T23:28:48.633Z,94811.66
2022-12-23T23:31:41.163Z,94823.28
2022-12-23T23:34:03.910Z,94834.50
2022-12-23T23:36:31.889Z,94847.34
2022-12-23T23:39:00.862Z,94847.66
2022-12-23T23:41:28.470Z,94838.19
2022-12-23T23:43:56.109Z,94841.19
2022-12-23T23:46:24.141Z,94844.38
2022-12-23T23:48:51.896Z,94846.97
2022-12-23T23:51:19.550Z,94854.34
2022-12-23T23:53:47.233Z,94854.50
2022-12-23T23:56:21.951Z,94843.13
2022-12-23T23:58:52.579Z,94837.25
